createdAt,value
2018-12-12T00:00:01.921Z,11.07
2018-12-12T00:02:35.812Z,8.33
2018-12-12T00:05:10.047Z,11.20
2018-12-12T00:07:42.492Z,12.40
2018-12-12T00:10:19.860Z,14.10
2018-12-12T00:12:54.128Z,11.27
2018-12-12T00:15:28.620Z,8.10
2018-12-12T00:18:03.862Z,9.27
2018-12-12T00:20:38.260Z,8.80
2018-12-12T00:23:13.182Z,9.97
2018-12-12T00:25:47.355Z,12.43
2018-12-12T00:28:21.286Z,10.67
2018-12-12T00:30:55.467Z,9.30
2018-12-12T00:33:29.863Z,14.90
2018-12-12T00:36:04.075Z,12.37
2018-12-12T00:38:38.236Z,10.50
2018-12-12T00:41:12.226Z,12.90
2018-12-12T00:43:59.866Z,12.53
2018-12-12T00:46:52.182Z,12.37
2018-12-12T00:52:02.343Z,8.93
2018-12-12T00:54:36.611Z,7.97
2018-12-12T00:57:10.734Z,6.83
2018-12-12T00:59:44.735Z,6.70
2018-12-12T01:02:18.764Z,6.30
2018-12-12T01:04:52.887Z,8.47
2018-12-12T01:07:27.053Z,11.77
2018-12-12T01:10:01.192Z,9.67
2018-12-12T01:12:35.282Z,7.00
2018-12-12T01:15:09.279Z,7.50
2018-12-12T01:17:43.462Z,6.77
2018-12-12T01:20:17.543Z,7.87
2018-12-12T01:22:51.737Z,7.97
2018-12-12T01:25:26.172Z,6.87
2018-12-12T01:28:00.154Z,7.00
2018-12-12T01:30:53.016Z,5.50
2018-12-12T01:33:27.712Z,6.67
2018-12-12T01:36:01.889Z,6.50
2018-12-12T01:38:35.809Z,7.47
2018-12-12T01:41:09.723Z,6.20
2018-12-12T01:43:46.716Z,8.70
2018-12-12T01:46:20.816Z,9.37
2018-12-12T01:48:54.942Z,9.63
2018-12-12T01:51:33.031Z,9.90
2018-12-12T02:07:31.821Z,6.57
2018-12-12T02:15:17.530Z,8.43
2018-12-12T02:17:51.421Z,8.63
2018-12-12T02:20:42.600Z,10.10
2018-12-12T02:23:18.349Z,8.43
2018-12-12T02:25:52.621Z,9.17
2018-12-12T02:28:26.791Z,7.53
2018-12-12T02:31:00.874Z,8.93
2018-12-12T02:33:34.849Z,9.40
2018-12-12T02:36:09.475Z,9.77
2018-12-12T02:38:43.564Z,9.43
2018-12-12T02:41:17.806Z,10.13
2018-12-12T02:43:51.988Z,9.33
2018-12-12T02:46:26.164Z,10.37
2018-12-12T02:49:00.592Z,9.33
2018-12-12T02:51:34.495Z,9.80
2018-12-12T02:54:08.861Z,12.57
2018-12-12T02:56:47.451Z,11.93
2018-12-12T02:59:21.961Z,9.97
2018-12-12T03:01:56.340Z,9.00
2018-12-12T03:04:30.468Z,9.97
2018-12-12T03:07:04.663Z,13.90
2018-12-12T03:09:39.461Z,11.80
2018-12-12T03:12:12.413Z,10.10
2018-12-12T03:14:49.641Z,11.53
2018-12-12T03:17:24.155Z,11.27
2018-12-12T03:19:58.344Z,8.03
2018-12-12T03:22:32.245Z,9.80
2018-12-12T03:25:09.640Z,11.77
2018-12-12T03:27:44.381Z,13.50
2018-12-12T03:30:23.273Z,11.20
2018-12-12T03:32:55.246Z,9.73
2018-12-12T03:35:29.213Z,11.57
2018-12-12T03:38:16.863Z,16.83
2018-12-12T03:40:51.780Z,13.33
2018-12-12T03:43:39.457Z,13.70
2018-12-12T03:46:13.425Z,11.77
2018-12-12T03:48:47.544Z,12.20
2018-12-12T03:51:21.657Z,12.33
2018-12-12T03:53:55.861Z,12.00
2018-12-12T03:56:29.715Z,15.53
2018-12-12T03:59:03.988Z,14.53
2018-12-12T04:01:38.457Z,14.43
2018-12-12T04:04:11.235Z,14.03
2018-12-12T04:06:52.381Z,12.33
2018-12-12T04:09:26.727Z,16.40
2018-12-12T04:15:00.792Z,14.70
2018-12-12T04:17:48.737Z,19.13
2018-12-12T04:20:31.097Z,32.37
2018-12-12T04:23:05.581Z,45.63
2018-12-12T04:25:39.521Z,46.77
2018-12-12T04:28:13.607Z,44.73
2018-12-12T04:30:47.657Z,36.67
2018-12-12T04:33:21.731Z,26.40
2018-12-12T04:35:55.741Z,32.60
2018-12-12T04:41:29.732Z,59.33
2018-12-12T04:44:03.721Z,45.47
2018-12-12T04:46:40.721Z,35.57
2018-12-12T04:49:14.618Z,23.43
2018-12-12T04:51:48.805Z,30.97
2018-12-12T04:54:23.011Z,45.33
2018-12-12T04:56:57.253Z,42.33
2018-12-12T04:59:31.355Z,52.07
2018-12-12T05:02:06.048Z,41.60
2018-12-12T05:04:40.192Z,31.23
2018-12-12T05:07:12.154Z,20.30
2018-12-12T05:09:46.977Z,16.50
2018-12-12T05:12:21.396Z,12.67
2018-12-12T05:14:55.512Z,13.80
2018-12-12T05:17:29.790Z,13.47
2018-12-12T05:20:03.921Z,13.53
2018-12-12T05:22:37.787Z,10.13
2018-12-12T05:28:18.047Z,12.90
2018-12-12T05:30:52.455Z,12.40
2018-12-12T05:33:24.531Z,12.10
2018-12-12T05:35:55.763Z,14.27
2018-12-12T05:38:29.861Z,12.37
2018-12-12T05:41:04.180Z,12.50
2018-12-12T05:43:38.252Z,14.60
2018-12-12T05:46:10.931Z,13.97
2018-12-12T05:52:08.396Z,11.27
2018-12-12T05:54:42.263Z,13.60
2018-12-12T05:57:16.372Z,12.93
2018-12-12T05:59:50.336Z,15.07
2018-12-12T06:02:24.609Z,15.30
2018-12-12T06:04:59.025Z,22.73
2018-12-12T06:07:33.009Z,15.90
2018-12-12T06:10:07.747Z,12.57
2018-12-12T06:12:48.687Z,13.23
2018-12-12T06:15:23.286Z,12.90
2018-12-12T06:17:57.138Z,11.10
2018-12-12T06:20:31.241Z,9.43
2018-12-12T06:23:05.252Z,10.90
2018-12-12T06:25:39.461Z,11.43
2018-12-12T06:28:13.721Z,11.07
2018-12-12T06:30:47.683Z,12.97
2018-12-12T06:33:21.946Z,13.07
2018-12-12T06:35:55.919Z,11.20
2018-12-12T06:38:30.041Z,11.07
2018-12-12T06:41:04.023Z,12.30
2018-12-12T06:43:38.180Z,15.23
2018-12-12T06:46:17.496Z,10.80
2018-12-12T06:51:57.860Z,14.17
2018-12-12T06:54:31.900Z,14.97
2018-12-12T06:57:05.983Z,13.53
2018-12-12T06:59:40.035Z,12.50
2018-12-12T07:02:14.211Z,12.23
2018-12-12T07:04:48.664Z,11.60
2018-12-12T07:07:26.614Z,11.00
2018-12-12T07:09:59.323Z,13.73
2018-12-12T07:12:33.648Z,10.57
2018-12-12T07:15:08.179Z,14.50
2018-12-12T07:17:43.007Z,12.70
2018-12-12T07:20:30.521Z,10.90
2018-12-12T07:23:03.408Z,15.07
2018-12-12T07:25:44.304Z,15.23
2018-12-12T07:28:18.687Z,13.17
2018-12-12T07:30:52.596Z,12.53
2018-12-12T07:33:27.074Z,10.60
2018-12-12T07:36:01.750Z,12.63
2018-12-12T07:38:35.691Z,12.17
2018-12-12T07:41:10.554Z,16.43
2018-12-12T07:43:44.740Z,13.47
2018-12-12T07:46:20.219Z,14.73
2018-12-12T07:48:54.160Z,15.13
2018-12-12T07:51:28.356Z,15.27
2018-12-12T07:54:02.769Z,10.37
2018-12-12T07:56:37.005Z,14.20
2018-12-12T07:59:11.107Z,17.03
2018-12-12T08:01:45.460Z,14.80
2018-12-12T08:04:17.419Z,14.23
2018-12-12T08:06:51.281Z,13.43
2018-12-12T08:09:25.545Z,14.63
2018-12-12T08:11:59.683Z,14.90
2018-12-12T08:14:33.908Z,16.20
2018-12-12T08:17:07.887Z,14.47
2018-12-12T08:19:42.192Z,15.20
2018-12-12T08:22:16.975Z,14.27
2018-12-12T08:24:51.780Z,17.53
2018-12-12T08:27:25.871Z,20.83
2018-12-12T08:30:00.119Z,19.83
2018-12-12T08:32:34.569Z,18.83
2018-12-12T08:35:08.689Z,17.30
2018-12-12T08:37:43.051Z,18.37
2018-12-12T08:40:17.204Z,18.67
2018-12-12T08:42:51.260Z,20.37
2018-12-12T08:45:27.395Z,19.43
2018-12-12T08:48:01.694Z,21.17
2018-12-12T08:50:43.563Z,21.60
2018-12-12T08:53:18.976Z,20.77
2018-12-12T08:55:53.291Z,16.93
2018-12-12T08:58:27.209Z,15.77
2018-12-12T09:01:01.404Z,17.60
2018-12-12T09:03:35.511Z,19.83
2018-12-12T09:06:09.681Z,19.23
2018-12-12T09:08:43.872Z,20.43
2018-12-12T09:11:18.153Z,19.27
2018-12-12T09:13:59.052Z,18.60
2018-12-12T09:16:33.460Z,15.57
2018-12-12T09:19:07.522Z,17.53
2018-12-12T09:21:41.841Z,22.27
2018-12-12T09:24:15.857Z,18.87
2018-12-12T09:26:49.914Z,18.57
2018-12-12T09:29:23.876Z,18.50
2018-12-12T09:31:57.994Z,19.10
2018-12-12T09:34:32.328Z,20.93
2018-12-12T09:37:06.755Z,21.00
2018-12-12T09:39:40.925Z,22.00
2018-12-12T09:42:15.022Z,17.70
2018-12-12T09:44:48.936Z,21.57
2018-12-12T09:47:23.347Z,22.53
2018-12-12T09:49:57.373Z,22.40
2018-12-12T09:52:31.465Z,24.30
2018-12-12T09:55:05.592Z,23.70
2018-12-12T09:57:39.756Z,20.27
2018-12-12T10:00:11.927Z,17.40
2018-12-12T10:02:45.861Z,22.23
2018-12-12T10:05:20.152Z,22.80
2018-12-12T10:07:54.200Z,24.47
2018-12-12T10:10:28.257Z,25.97
2018-12-12T10:13:02.176Z,20.93
2018-12-12T10:15:36.383Z,20.77
2018-12-12T10:18:10.606Z,21.13
2018-12-12T10:20:44.596Z,20.07
2018-12-12T10:23:18.806Z,22.97
2018-12-12T10:25:52.905Z,17.33
2018-12-12T10:28:26.897Z,19.77
2018-12-12T11:01:49.093Z,21.77
2018-12-12T11:04:23.238Z,18.30
2018-12-12T11:06:57.572Z,16.83
2018-12-12T11:09:31.831Z,20.10
2018-12-12T11:12:06.111Z,17.43
2018-12-12T11:14:40.457Z,21.40
2018-12-12T11:17:14.665Z,16.87
2018-12-12T11:19:48.583Z,16.27
2018-12-12T11:22:22.516Z,20.67
2018-12-12T11:24:56.864Z,16.53
2018-12-12T11:27:31.073Z,16.20
2018-12-12T11:30:06.516Z,19.67
2018-12-12T11:32:41.212Z,17.10
2018-12-12T11:35:16.307Z,19.33
2018-12-12T11:37:50.724Z,18.77
2018-12-12T11:40:25.168Z,17.73
2018-12-12T11:42:59.136Z,17.33
2018-12-12T11:45:40.193Z,14.87
2018-12-12T11:48:11.924Z,15.60
2018-12-12T11:50:45.906Z,14.10
2018-12-12T11:53:20.091Z,14.27
2018-12-12T11:55:54.105Z,13.77
2018-12-12T11:58:28.269Z,13.90
2018-12-12T12:01:02.737Z,13.73
2018-12-12T12:03:36.594Z,10.80
2018-12-12T12:06:11.041Z,11.17
2018-12-12T12:08:45.119Z,10.60
2018-12-12T12:11:19.809Z,11.17
2018-12-12T12:13:53.724Z,10.10
2018-12-12T12:16:41.296Z,10.13
2018-12-12T12:19:15.299Z,10.57
2018-12-12T12:21:49.796Z,11.33
2018-12-12T12:24:24.296Z,12.13
2018-12-12T12:26:58.689Z,10.00
2018-12-12T12:29:32.683Z,8.97
2018-12-12T12:32:07.056Z,11.87
2018-12-12T12:34:41.158Z,8.37
2018-12-12T12:37:15.165Z,8.97
2018-12-12T12:39:49.236Z,7.57
2018-12-12T12:42:23.607Z,8.63
2018-12-12T12:45:05.133Z,9.00
2018-12-12T12:47:39.054Z,8.57
2018-12-12T12:50:13.314Z,6.73
2018-12-12T12:52:47.196Z,8.43
2018-12-12T12:55:21.189Z,7.30
2018-12-12T12:57:55.436Z,7.57
2018-12-12T13:00:29.605Z,9.00
2018-12-12T13:03:03.548Z,8.13
2018-12-12T13:05:35.029Z,9.37
2018-12-12T13:08:09.033Z,8.37
2018-12-12T13:10:43.103Z,10.60
2018-12-12T13:13:17.341Z,8.00
2018-12-12T13:15:51.654Z,9.50
2018-12-12T13:18:26.512Z,8.93
2018-12-12T13:21:00.543Z,9.80
2018-12-12T13:23:34.675Z,9.63
2018-12-12T13:26:08.636Z,15.07
2018-12-12T13:28:43.049Z,12.37
2018-12-12T13:31:17.037Z,12.97
2018-12-12T13:33:51.107Z,14.80
2018-12-12T13:36:26.911Z,13.03
2018-12-12T13:39:01.167Z,13.50
2018-12-12T13:41:35.273Z,12.60
2018-12-12T13:44:09.525Z,15.27
2018-12-12T13:46:43.730Z,14.33
2018-12-12T13:49:21.966Z,13.77
2018-12-12T13:51:56.211Z,13.33
2018-12-12T13:54:30.570Z,14.07
2018-12-12T13:57:08.156Z,12.77
2018-12-12T13:59:45.380Z,14.00
2018-12-12T14:02:29.948Z,13.17
2018-12-12T14:05:07.560Z,12.90
2018-12-12T14:07:41.540Z,13.70
2018-12-12T14:13:15.423Z,11.70
2018-12-12T14:15:49.654Z,12.40
2018-12-12T14:18:23.622Z,14.27
2018-12-12T14:20:57.834Z,13.40
2018-12-12T14:23:31.837Z,12.90
2018-12-12T14:26:05.762Z,17.27
2018-12-12T14:28:39.776Z,14.47
2018-12-12T14:31:21.500Z,15.53
2018-12-12T14:33:55.716Z,13.93
2018-12-12T14:36:43.411Z,13.90
2018-12-12T14:39:16.191Z,15.50
2018-12-12T14:41:50.406Z,14.10
2018-12-12T14:44:27.724Z,12.40
2018-12-12T14:47:02.243Z,11.73
2018-12-12T14:49:40.223Z,12.83
2018-12-12T14:52:15.345Z,12.00
2018-12-12T14:54:49.796Z,13.20
2018-12-12T14:57:23.879Z,11.77
2018-12-12T15:00:01.290Z,13.77
2018-12-12T15:02:48.654Z,14.43
2018-12-12T15:05:22.870Z,14.40
2018-12-12T15:07:57.116Z,13.97
2018-12-12T15:10:31.056Z,14.50
2018-12-12T15:13:05.285Z,14.17
2018-12-12T15:41:33.102Z,10.90
2018-12-12T15:44:07.675Z,12.60
2018-12-12T15:46:41.787Z,14.93
2018-12-12T15:49:15.954Z,13.83
2018-12-12T15:51:54.127Z,15.97
2018-12-12T15:54:31.339Z,16.30
2018-12-12T15:57:03.350Z,12.10
2018-12-12T15:59:37.543Z,13.87
2018-12-12T16:05:30.807Z,13.43
2018-12-12T16:08:05.392Z,14.83
2018-12-12T16:10:39.852Z,12.07
2018-12-12T16:13:27.411Z,11.70
2018-12-12T16:16:00.191Z,10.97
2018-12-12T16:18:36.605Z,40.07
2018-12-12T16:21:10.712Z,23.90
2018-12-12T16:23:44.974Z,51.00
2018-12-12T16:26:19.000Z,32.50
2018-12-12T16:28:53.201Z,19.17
2018-12-12T16:31:27.510Z,13.50
2018-12-12T16:34:01.726Z,37.60
2018-12-12T16:36:35.869Z,31.97
2018-12-12T16:39:10.460Z,22.97
2018-12-12T16:41:44.616Z,20.53
2018-12-12T16:44:18.773Z,40.30
2018-12-12T16:46:53.165Z,23.17
2018-12-12T16:49:27.335Z,22.80
2018-12-12T16:52:15.033Z,14.33
2018-12-12T16:54:49.682Z,11.97
2018-12-12T16:57:24.179Z,11.33
2018-12-12T16:59:58.246Z,11.20
2018-12-12T17:02:32.405Z,13.10
2018-12-12T17:05:06.585Z,12.50
2018-12-12T17:07:41.104Z,11.50
2018-12-12T17:10:15.483Z,11.10
2018-12-12T17:12:49.951Z,13.23
2018-12-12T17:15:24.072Z,12.13
2018-12-12T17:17:58.585Z,11.50
2018-12-12T17:20:45.829Z,11.80
2018-12-12T17:23:18.642Z,10.47
2018-12-12T17:25:52.888Z,13.00
2018-12-12T17:28:27.342Z,12.40
2018-12-12T17:30:58.681Z,12.27
2018-12-12T17:33:30.795Z,13.03
2018-12-12T17:36:04.948Z,13.00
2018-12-12T17:38:38.941Z,12.20
2018-12-12T17:41:13.131Z,12.03
2018-12-12T17:43:48.806Z,12.50
2018-12-12T17:46:23.108Z,13.57
2018-12-12T17:48:59.925Z,12.40
2018-12-12T17:51:37.462Z,11.07
2018-12-12T17:54:11.523Z,14.07
2018-12-12T17:56:45.598Z,13.30
2018-12-12T17:59:21.763Z,13.43
2018-12-12T18:01:56.030Z,11.07
2018-12-12T18:04:30.144Z,15.33
2018-12-12T18:07:04.682Z,12.37
2018-12-12T18:09:39.295Z,13.93
2018-12-12T18:12:13.774Z,13.40
2018-12-12T18:14:47.928Z,13.27
2018-12-12T18:17:21.980Z,13.33
2018-12-12T18:19:57.705Z,12.63
2018-12-12T18:22:29.728Z,14.90
2018-12-12T18:25:04.466Z,12.93
2018-12-12T18:27:41.330Z,13.53
2018-12-12T18:30:15.707Z,13.33
2018-12-12T18:32:49.591Z,11.80
2018-12-12T18:35:23.849Z,13.27
2018-12-12T18:38:01.975Z,13.70
2018-12-12T18:40:34.033Z,11.37
2018-12-12T18:43:07.887Z,12.23
2018-12-12T18:45:42.374Z,11.60
2018-12-12T19:11:28.638Z,13.93
2018-12-12T19:32:07.410Z,11.33
2018-12-12T19:34:41.628Z,13.80
2018-12-12T19:37:28.921Z,11.33
2018-12-12T19:40:00.921Z,13.10
2018-12-12T19:42:35.743Z,11.93
2018-12-12T19:45:10.180Z,11.97
2018-12-12T19:50:49.384Z,14.03
2018-12-12T19:53:37.831Z,15.63
2018-12-12T19:56:10.537Z,13.40
2018-12-12T19:59:02.216Z,16.63
2018-12-12T20:01:36.853Z,13.03
2018-12-12T20:04:13.229Z,12.47
2018-12-12T20:06:50.221Z,14.97
2018-12-12T20:09:24.730Z,14.50
2018-12-12T20:11:56.775Z,14.47
2018-12-12T20:17:31.032Z,13.77
2018-12-12T20:20:05.299Z,14.50
2018-12-12T20:22:41.118Z,15.13
2018-12-12T20:25:15.387Z,14.87
2018-12-12T20:27:49.453Z,14.57
2018-12-12T20:30:23.874Z,16.40
2018-12-12T20:32:58.237Z,19.93
2018-12-12T20:35:32.318Z,15.23
2018-12-12T20:38:08.490Z,17.00
2018-12-12T20:40:43.049Z,16.97
2018-12-12T20:43:17.188Z,18.20
2018-12-12T20:45:51.276Z,16.40
2018-12-12T20:51:25.777Z,15.90
2018-12-12T20:53:59.935Z,16.47
2018-12-12T20:56:34.229Z,14.73
2018-12-12T20:59:08.544Z,16.30
2018-12-12T21:01:42.627Z,15.10
2018-12-12T21:04:14.716Z,14.77
2018-12-12T21:06:48.750Z,17.17
2018-12-12T21:09:22.917Z,19.50
2018-12-12T21:12:04.789Z,15.53
2018-12-12T21:14:39.259Z,15.27
2018-12-12T21:17:13.237Z,17.10
2018-12-12T21:19:48.039Z,17.00
2018-12-12T21:22:22.196Z,16.60
2018-12-12T21:24:56.348Z,15.07
2018-12-12T21:27:30.426Z,17.87
2018-12-12T21:30:04.771Z,17.67
2018-12-12T21:32:38.677Z,20.07
2018-12-12T21:35:12.906Z,17.43
2018-12-12T21:37:47.220Z,17.27
2018-12-12T21:40:21.383Z,19.17
2018-12-12T21:42:55.468Z,19.70
2018-12-12T21:45:34.684Z,17.73
2018-12-12T21:48:08.969Z,16.63
2018-12-12T21:50:43.406Z,17.10
2018-12-12T21:53:17.518Z,15.53
2018-12-12T21:55:51.635Z,18.50
2018-12-12T21:58:25.176Z,16.00
2018-12-12T22:00:59.916Z,17.07
2018-12-12T22:13:53.417Z,18.50
2018-12-12T22:24:14.974Z,21.37
2018-12-12T22:26:49.129Z,19.70
2018-12-12T22:29:23.072Z,15.77
2018-12-12T22:31:57.288Z,17.70
2018-12-12T22:34:31.474Z,17.17
2018-12-12T22:37:05.481Z,14.80
2018-12-12T22:39:39.527Z,13.77
2018-12-12T22:42:13.616Z,16.67
2018-12-12T22:45:01.048Z,15.53
2018-12-12T22:47:35.697Z,17.93
2018-12-12T22:53:13.781Z,18.60
2018-12-12T22:55:48.195Z,17.60
2018-12-12T22:58:22.163Z,17.67
2018-12-12T23:01:10.321Z,19.53
2018-12-12T23:03:44.536Z,17.70
2018-12-12T23:06:20.543Z,17.00
2018-12-12T23:08:54.978Z,18.70
2018-12-12T23:11:35.879Z,17.33
2018-12-12T23:14:10.076Z,17.83
2018-12-12T23:16:44.343Z,18.67
2018-12-12T23:19:18.237Z,20.43
2018-12-12T23:21:52.303Z,18.83
2018-12-12T23:24:26.542Z,17.80
2018-12-12T23:27:00.409Z,19.53
2018-12-12T23:29:34.649Z,17.53
2018-12-12T23:32:11.958Z,20.20
2018-12-12T23:34:54.874Z,17.50
2018-12-12T23:37:29.470Z,21.77
2018-12-12T23:40:16.983Z,19.77
2018-12-12T23:42:48.993Z,20.90
2018-12-12T23:45:23.009Z,21.73
2018-12-12T23:47:57.184Z,18.10
2018-12-12T23:50:29.331Z,20.70
2018-12-12T23:53:03.286Z,20.20
2018-12-12T23:55:37.254Z,19.27
2018-12-12T23:58:11.163Z,19.67
